Gesamt
Elcho Island Airport (Elcho Island, Northern Territory) ELC Wetter
|
Elcho Island, Northern Territory (ELC / YELD)
Klarer Himmel
Leichter Wind |
|
23 °C |
ELC Terminal Area Forecast
| Date | Time (ACST) | Flight Rules | Wind Dir. | Speed | Type | Height AGL (ft) | Visibility | Remarks | ||||||
|---|---|---|---|---|---|---|---|---|---|---|---|---|---|---|
Kürzlicher METAR-Verlauf für ELC
| Date | Time (ACST) | Flight Rules | Wind Dir. | Speed | Type | Height AGL (ft) | Visibility | Temp (°C) | Temp (°F) | Dew Point (°C) | Dew Point (°F) | Rel. Humid. | Pressure | Density Altitude | Remarks |
|---|---|---|---|---|---|---|---|---|---|---|---|---|---|---|---|
| 06-Sep | 01:30 | n/a | 90° | 4 kt | Missing | 23° | 73° | 22° | 71° | 94% | 1015 mb | 1.008 ft | |||
| 06-Sep | 00:30 | n/a | 110° | 4 kt | Missing | 23° | 73° | 22° | 71° | 94% | 1016 mb | 979 ft | |||
| 05-Sep | 23:30 | n/a | 100° | 4 kt | Missing | 23° | 73° | 22° | 71° | 94% | 1016 mb | 979 ft | |||
| 05-Sep | 22:30 | n/a | 90° | 4 kt | Missing | 24° | 75° | 22° | 71° | 89% | 1016 mb | 1.099 ft | |||
| 05-Sep | 21:30 | n/a | 90° | 4 kt | Missing | 24° | 75° | 22° | 71° | 89% | 1017 mb | 1.069 ft | |||
| 05-Sep | 20:30 | n/a | 100° | 4 kt | Missing | 25° | 77° | 22° | 71° | 83% | 1016 mb | 1.219 ft | |||
| 05-Sep | 19:30 | n/a | 80° | 4 kt | Missing | 25° | 77° | 22° | 71° | 83% | 1015 mb | 1.248 ft | |||
| 05-Sep | 18:30 | n/a | 60° | 7 kt | Missing | 26° | 78° | 22° | 71° | 79% | 1014 mb | 1.398 ft | |||
| 05-Sep | 17:30 | n/a | 40° | 11 kt | Missing | 28° | 82° | 22° | 71° | 70% | 1014 mb | 1.638 ft | |||
| 05-Sep | 16:30 | n/a | 30° | 15 kt | Missing | 29° | 84° | 22° | 71° | 66% | 1013 mb | 1.787 ft | |||
| 05-Sep | 15:30 | n/a | 20° | 15 kt | Missing | 29° | 84° | 22° | 71° | 66% | 1014 mb | 1.758 ft | |||
| 05-Sep | 14:30 | n/a | 20° | 14 kt | Missing | 30° | 86° | 21° | 69° | 59% | 1014 mb | 1.878 ft | |||
| 05-Sep | 13:30 | n/a | 30° | 13 kt | Missing | 29° | 84° | 22° | 71° | 66% | 1015 mb | 1.728 ft | |||
| 05-Sep | 12:30 | n/a | 30° | 10 kt | Missing | 30° | 86° | 22° | 71° | 62% | 1016 mb | 1.819 ft | |||
| 05-Sep | 11:30 | n/a | 20° | 11 kt | Missing | 28° | 82° | 22° | 71° | 70% | 1016 mb | 1.579 ft | |||
| 05-Sep | 10:30 | n/a | 20° | 8 kt | Missing | 29° | 84° | 21° | 69° | 62% | 1017 mb | 1.669 ft | Wind gusting to 19 KT | ||
| 05-Sep | 09:30 | n/a | 100° | 5 kt | Missing | 28° | 82° | 21° | 69° | 66% | 1017 mb | 1.549 ft | |||
| 05-Sep | 08:30 | n/a | 120° | 5 kt | Missing | 26° | 78° | 23° | 73° | 84% | 1017 mb | 1.309 ft | |||
| 05-Sep | 07:30 | n/a | 140° | 4 kt | Missing | 22° | 71° | 22° | 71° | 100% | 1017 mb | 829 ft | |||
| 05-Sep | 06:30 | n/a | 130° | 4 kt | Missing | 21° | 69° | 20° | 68° | 94% | 1016 mb | 739 ft | |||
| 05-Sep | 05:30 | n/a | 120° | 3 kt | Missing | 21° | 69° | 21° | 69° | 100% | 1015 mb | 768 ft | |||
| 05-Sep | 04:30 | n/a | 130° | 4 kt | Missing | 22° | 71° | 22° | 71° | 100% | 1015 mb | 888 ft | |||
| 05-Sep | 03:30 | n/a | 110° | 3 kt | Missing | 23° | 73° | 22° | 71° | 94% | 1015 mb | 1.008 ft | |||
| 05-Sep | 02:30 | n/a | 110° | 4 kt | Missing | 23° | 73° | 22° | 71° | 94% | 1015 mb | 1.008 ft |
Anmelden
| Ihr Browser wird nicht unterstützt. aktualisieren Sie Ihren Browser |
